createdAt,value
2018-02-17T21:00:50.429Z,14.80
2018-02-17T21:02:53.028Z,14.40
2018-02-17T21:05:21.088Z,12.80
2018-02-17T21:07:23.630Z,13.67
2018-02-17T21:09:26.267Z,12.20
2018-02-17T21:11:28.779Z,11.80
2018-02-17T21:13:31.270Z,12.37
2018-02-17T21:15:33.822Z,11.63
2018-02-17T21:17:36.269Z,12.73
2018-02-17T21:19:38.754Z,12.87
2018-02-17T21:21:41.297Z,12.90
2018-02-17T21:23:43.766Z,12.10
2018-02-17T21:25:46.259Z,14.70
2018-02-17T21:27:48.811Z,18.53
2018-02-17T21:29:51.424Z,18.63
2018-02-17T21:31:53.914Z,19.13
2018-02-17T21:33:56.439Z,18.80
2018-02-17T21:35:58.989Z,18.50
2018-02-17T21:38:01.457Z,19.23
2018-02-17T21:40:03.964Z,19.90
2018-02-17T21:42:06.600Z,20.47
2018-02-17T21:44:09.115Z,22.35
2018-02-17T21:46:11.772Z,20.37
2018-02-17T21:48:14.306Z,21.33
2018-02-17T21:50:16.747Z,17.00
2018-02-17T21:52:19.204Z,19.10
2018-02-17T21:54:21.680Z,19.53
2018-02-17T21:56:24.175Z,17.87
2018-02-17T21:58:26.728Z,18.70
2018-02-17T22:00:29.239Z,17.73
2018-02-17T22:02:31.763Z,17.45
2018-02-17T22:04:34.238Z,18.20
2018-02-17T22:06:36.710Z,19.00
2018-02-17T22:08:39.249Z,17.27
2018-02-17T22:10:41.760Z,17.00
2018-02-17T22:12:44.330Z,15.30
2018-02-17T22:14:46.877Z,15.07
2018-02-17T22:16:49.350Z,16.10
2018-02-17T22:18:51.880Z,16.15
2018-02-17T22:20:54.451Z,16.97
2018-02-17T22:22:56.950Z,17.17
2018-02-17T22:24:59.476Z,18.33
2018-02-17T22:27:01.926Z,19.00
2018-02-17T22:29:04.530Z,16.40
2018-02-17T22:31:07.058Z,16.90
2018-02-17T22:33:09.540Z,15.93
2018-02-17T22:35:12.040Z,15.38
2018-02-17T22:37:14.498Z,13.63
2018-02-17T22:39:16.976Z,14.67
2018-02-17T22:41:19.541Z,13.15
2018-02-17T22:43:22.027Z,13.53
2018-02-17T22:45:24.476Z,13.97
2018-02-17T22:47:27.014Z,15.10
2018-02-17T22:49:29.505Z,11.60
2018-02-17T22:51:32.090Z,13.73
2018-02-17T22:53:34.575Z,12.02
2018-02-17T22:55:37.190Z,12.30
2018-02-17T22:57:39.639Z,12.07
2018-02-17T22:59:42.106Z,12.17
2018-02-17T23:01:44.698Z,12.00
2018-02-17T23:03:47.156Z,11.27
2018-02-17T23:05:49.721Z,12.25
2018-02-17T23:07:52.296Z,12.07
2018-02-17T23:09:54.783Z,12.10
2018-02-17T23:11:57.267Z,11.63
2018-02-17T23:13:59.785Z,12.23
2018-02-17T23:16:02.382Z,12.90
2018-02-17T23:18:04.882Z,11.07
2018-02-17T23:20:07.369Z,12.00
2018-02-17T23:22:09.882Z,12.15
2018-02-17T23:24:12.349Z,12.13
2018-02-17T23:26:14.861Z,12.02
2018-02-17T23:28:17.366Z,12.68
2018-02-17T23:30:19.878Z,12.70
2018-02-17T23:32:22.377Z,12.70
2018-02-17T23:34:24.901Z,12.50
2018-02-17T23:36:27.376Z,12.77
2018-02-17T23:38:30.012Z,11.98
2018-02-17T23:40:32.612Z,12.97
2018-02-17T23:42:35.111Z,11.77
2018-02-17T23:44:37.717Z,12.70
2018-02-17T23:46:40.241Z,13.10
2018-02-17T23:48:42.702Z,10.70
2018-02-17T23:50:45.198Z,11.40
2018-02-17T23:52:47.722Z,11.30
2018-02-17T23:54:50.217Z,11.05
2018-02-17T23:56:52.722Z,12.25
2018-02-17T23:58:55.199Z,11.45
